createdAt,value
2022-12-08T00:02:23.895Z,12.8
2022-12-08T00:07:23.671Z,10.2
2022-12-08T00:12:23.671Z,13.5
2022-12-08T00:17:23.674Z,13.1
2022-12-08T00:22:23.680Z,18.3
2022-12-08T00:27:23.674Z,19.4
2022-12-08T00:32:23.733Z,19.0
2022-12-08T00:37:23.682Z,16.7
2022-12-08T00:42:23.782Z,19.9
2022-12-08T00:47:25.011Z,17.6
2022-12-08T00:52:23.682Z,20.5
2022-12-08T00:57:23.694Z,17.2
2022-12-08T01:02:23.700Z,20.3
2022-12-08T01:07:23.727Z,18.9
2022-12-08T01:12:23.704Z,19.6
2022-12-08T01:17:23.795Z,19.1
2022-12-08T01:22:23.700Z,19.9
2022-12-08T01:27:23.732Z,16.9
2022-12-08T01:32:23.808Z,18.0
2022-12-08T01:37:23.713Z,18.8
2022-12-08T01:42:23.710Z,19.1
2022-12-08T01:47:23.715Z,17.8
2022-12-08T01:52:23.821Z,17.9
2022-12-08T01:57:23.961Z,18.8
2022-12-08T02:02:23.824Z,18.0
2022-12-08T02:07:23.794Z,17.2
2022-12-08T02:12:23.832Z,17.2
2022-12-08T02:17:23.837Z,15.5
2022-12-08T02:22:23.838Z,15.7
2022-12-08T02:27:23.736Z,14.5
2022-12-08T02:32:23.738Z,13.6
2022-12-08T02:37:23.742Z,15.2
2022-12-08T02:42:23.743Z,14.6
2022-12-08T02:47:23.751Z,12.9
2022-12-08T02:52:23.747Z,14.0
2022-12-08T02:57:24.149Z,14.9
2022-12-08T03:02:23.892Z,14.8
2022-12-08T03:07:23.757Z,16.2
2022-12-08T03:12:23.771Z,15.1
2022-12-08T03:17:23.767Z,13.4
2022-12-08T03:22:23.761Z,15.1
2022-12-08T03:27:23.765Z,15.1
2022-12-08T03:32:23.770Z,13.7
2022-12-08T03:37:23.770Z,11.9
2022-12-08T03:42:23.770Z,11.6
2022-12-08T03:47:23.931Z,10.1
2022-12-08T03:52:23.777Z,8.6
2022-12-08T03:57:23.788Z,7.9
2022-12-08T04:02:23.939Z,6.2
2022-12-08T04:07:23.792Z,5.7
2022-12-08T04:12:23.823Z,5.8
2022-12-08T04:17:23.898Z,6.2
2022-12-08T04:22:23.792Z,10.7
2022-12-08T04:27:23.808Z,6.5
2022-12-08T04:32:23.802Z,7.5
2022-12-08T04:37:23.897Z,7.2
2022-12-08T04:42:23.801Z,7.9
2022-12-08T04:47:23.802Z,8.1
2022-12-08T04:52:23.913Z,8.1
2022-12-08T04:57:23.812Z,8.5
2022-12-08T05:02:23.865Z,8.2
2022-12-08T05:07:23.916Z,7.8
2022-12-08T05:12:23.821Z,8.6
2022-12-08T05:17:23.922Z,8.9
2022-12-08T05:22:23.923Z,8.1
2022-12-08T05:27:23.928Z,7.4
2022-12-08T05:32:24.025Z,7.8
2022-12-08T05:37:23.927Z,6.6
2022-12-08T05:42:25.086Z,8.3
2022-12-08T05:47:23.928Z,10.6
2022-12-08T05:52:23.937Z,10.9
2022-12-08T05:57:23.955Z,11.7
2022-12-08T06:02:24.090Z,12.5
2022-12-08T06:07:23.948Z,11.3
2022-12-08T06:12:23.943Z,8.8
2022-12-08T06:17:23.948Z,7.8
2022-12-08T06:22:23.856Z,7.8
2022-12-08T06:27:24.032Z,8.7
2022-12-08T06:32:27.445Z,7.8
2022-12-08T06:37:24.011Z,7.1
2022-12-08T06:42:23.861Z,6.9
2022-12-08T06:47:26.334Z,6.1
2022-12-08T06:52:23.943Z,6.3
2022-12-08T06:57:23.871Z,10.8
2022-12-08T07:02:23.915Z,5.3
2022-12-08T07:07:23.889Z,6.1
2022-12-08T07:12:23.880Z,5.0
2022-12-08T07:17:23.872Z,5.8
2022-12-08T07:22:23.879Z,5.7
2022-12-08T07:27:23.921Z,5.0
2022-12-08T07:32:23.887Z,5.1
2022-12-08T07:37:23.892Z,4.4
2022-12-08T07:42:23.888Z,3.6
2022-12-08T07:47:23.910Z,4.2
2022-12-08T07:52:23.895Z,8.3
2022-12-08T08:02:25.288Z,11.8
2022-12-08T08:07:23.920Z,15.0
2022-12-08T08:12:31.871Z,9.5
2022-12-08T08:17:24.131Z,4.8
2022-12-08T08:22:23.916Z,6.0
2022-12-08T08:27:23.916Z,5.8
2022-12-08T08:32:23.966Z,6.4
2022-12-08T08:37:24.136Z,4.6
2022-12-08T08:42:24.024Z,8.2
2022-12-08T08:47:24.026Z,4.7
2022-12-08T08:52:23.931Z,6.7
2022-12-08T08:57:25.936Z,7.3
2022-12-08T09:02:23.935Z,4.5
2022-12-08T09:07:24.038Z,3.6
2022-12-08T09:12:24.029Z,2.9
2022-12-08T09:17:24.044Z,3.0
2022-12-08T09:22:23.941Z,3.5
2022-12-08T09:27:24.052Z,3.9
2022-12-08T09:32:23.946Z,3.6
2022-12-08T09:37:24.101Z,3.6
2022-12-08T09:42:24.059Z,3.5
2022-12-08T09:47:24.055Z,2.6
2022-12-08T09:52:23.958Z,2.4
2022-12-08T09:57:23.956Z,2.8
2022-12-08T10:02:24.065Z,2.7
2022-12-08T10:07:24.066Z,2.9
2022-12-08T10:12:24.070Z,2.0
2022-12-08T10:17:24.075Z,1.4
2022-12-08T10:22:24.070Z,1.0
2022-12-08T10:27:24.080Z,1.8
2022-12-08T10:32:24.076Z,2.0
2022-12-08T10:37:24.086Z,1.5
2022-12-08T10:42:24.086Z,2.4
2022-12-08T10:47:24.087Z,2.7
2022-12-08T10:52:24.094Z,3.8
2022-12-08T10:57:24.102Z,3.8
2022-12-08T11:02:24.233Z,4.6
2022-12-08T11:07:24.100Z,5.0
2022-12-08T11:12:24.099Z,3.9
2022-12-08T11:17:24.116Z,5.1
2022-12-08T11:22:24.103Z,4.2
2022-12-08T11:27:24.121Z,4.4
2022-12-08T11:32:24.117Z,4.9
2022-12-08T11:37:24.113Z,4.0
2022-12-08T11:42:24.118Z,5.5
2022-12-08T11:47:24.117Z,4.6
2022-12-08T11:52:24.121Z,4.2
2022-12-08T11:57:24.119Z,3.9
2022-12-08T12:02:24.262Z,3.9
2022-12-08T12:07:26.417Z,5.7
2022-12-08T12:12:24.128Z,5.4
2022-12-08T12:17:24.126Z,4.1
2022-12-08T12:22:24.135Z,5.9
2022-12-08T12:27:24.138Z,3.0
2022-12-08T12:32:24.139Z,4.5
2022-12-08T12:37:24.140Z,2.5
2022-12-08T12:42:24.145Z,4.5
2022-12-08T12:47:24.157Z,2.8
2022-12-08T12:52:24.241Z,2.6
2022-12-08T12:57:24.153Z,3.4
2022-12-08T13:02:24.290Z,2.7
2022-12-08T13:07:24.158Z,3.4
2022-12-08T13:12:24.167Z,3.5
2022-12-08T13:17:24.159Z,2.6
2022-12-08T13:22:24.176Z,3.5
2022-12-08T13:27:24.172Z,3.6
2022-12-08T13:32:24.168Z,4.6
2022-12-08T13:37:24.170Z,3.6
2022-12-08T13:42:24.173Z,3.7
2022-12-08T13:47:33.759Z,4.2
2022-12-08T13:57:24.214Z,4.5
2022-12-08T14:02:24.263Z,3.8
2022-12-08T14:07:24.421Z,4.9
2022-12-08T14:12:24.195Z,6.7
2022-12-08T14:17:24.196Z,7.9
2022-12-08T14:22:24.233Z,8.6
2022-12-08T14:27:24.198Z,9.0
2022-12-08T14:32:24.219Z,9.8
2022-12-08T14:37:24.204Z,7.5
2022-12-08T14:42:24.206Z,7.3
2022-12-08T14:47:24.354Z,7.1
2022-12-08T14:52:24.335Z,4.4
2022-12-08T14:57:24.213Z,3.2
2022-12-08T15:02:24.225Z,3.6
2022-12-08T15:07:24.217Z,3.9
2022-12-08T15:12:26.989Z,4.9
2022-12-08T15:17:24.222Z,4.4
2022-12-08T15:22:24.230Z,5.0
2022-12-08T15:27:24.222Z,5.2
2022-12-08T15:32:24.130Z,4.9
2022-12-08T15:37:24.229Z,5.9
2022-12-08T15:42:24.230Z,7.7
2022-12-08T15:47:24.233Z,6.6
2022-12-08T15:52:24.307Z,6.0
2022-12-08T15:57:35.938Z,6.4
2022-12-08T16:02:25.362Z,7.1
2022-12-08T16:07:24.217Z,6.8
2022-12-08T16:12:24.327Z,5.8
2022-12-08T16:17:24.188Z,5.6
2022-12-08T16:32:24.198Z,5.9
2022-12-08T16:37:24.156Z,6.6
2022-12-08T16:42:24.162Z,6.4
2022-12-08T16:47:24.165Z,6.1
2022-12-08T16:52:24.168Z,6.6
2022-12-08T16:57:24.164Z,7.9
2022-12-08T17:02:24.184Z,6.7
2022-12-08T17:07:24.171Z,6.7
2022-12-08T17:12:24.365Z,6.4
2022-12-08T17:17:24.175Z,6.4
2022-12-08T17:22:24.194Z,6.0
2022-12-08T17:27:24.178Z,7.0
2022-12-08T17:32:24.388Z,5.8
2022-12-08T17:37:24.201Z,7.0
2022-12-08T17:42:24.274Z,7.1
2022-12-08T17:47:24.190Z,8.7
2022-12-08T17:52:24.196Z,6.5
2022-12-08T17:57:24.292Z,6.7
2022-12-08T18:02:24.227Z,6.1
2022-12-08T18:07:24.196Z,8.7
2022-12-08T18:12:24.226Z,8.5
2022-12-08T18:17:24.288Z,9.1
2022-12-08T18:22:24.280Z,8.4
2022-12-08T18:27:24.211Z,10.8
2022-12-08T18:32:24.307Z,11.1
2022-12-08T18:37:24.214Z,12.4
2022-12-08T18:47:24.219Z,10.1
2022-12-08T18:52:32.471Z,12.2
2022-12-08T18:57:24.227Z,12.7
2022-12-08T19:02:24.305Z,14.3
2022-12-08T19:07:24.366Z,11.0
2022-12-08T19:12:24.345Z,13.1
2022-12-08T19:17:24.232Z,14.6
2022-12-08T19:22:24.239Z,14.8
2022-12-08T19:27:24.421Z,16.5
2022-12-08T19:32:24.341Z,16.6
2022-12-08T19:37:24.344Z,46.8
2022-12-08T19:42:24.337Z,19.7
2022-12-08T19:47:24.541Z,16.9
2022-12-08T19:52:24.348Z,16.7
2022-12-08T19:57:24.340Z,15.8
2022-12-08T20:02:24.481Z,16.6
2022-12-08T20:07:24.344Z,20.0
2022-12-08T20:12:24.449Z,18.6
2022-12-08T20:17:24.367Z,19.6
2022-12-08T20:22:24.364Z,19.1
2022-12-08T20:27:24.353Z,19.2
2022-12-08T20:32:24.368Z,21.6
2022-12-08T20:37:24.353Z,20.1
2022-12-08T20:42:24.371Z,21.2
2022-12-08T20:47:24.415Z,22.4
2022-12-08T20:52:24.383Z,21.1
2022-12-08T20:57:24.360Z,21.6
2022-12-08T21:02:24.488Z,24.4
2022-12-08T21:07:24.426Z,25.7
2022-12-08T21:12:24.521Z,26.9
2022-12-08T21:17:24.612Z,26.0
2022-12-08T21:22:24.479Z,29.1
2022-12-08T21:27:24.627Z,27.2
2022-12-08T21:32:29.887Z,26.1
2022-12-08T21:37:24.606Z,26.1
2022-12-08T21:42:27.943Z,23.9
2022-12-08T21:47:24.723Z,25.5
2022-12-08T21:52:24.509Z,24.9
2022-12-08T21:57:24.568Z,23.4
2022-12-08T22:02:24.641Z,24.1
2022-12-08T22:07:24.452Z,23.1
2022-12-08T22:12:24.562Z,23.7
2022-12-08T22:17:24.665Z,27.9
2022-12-08T22:22:24.528Z,25.6
2022-12-08T22:27:24.475Z,24.6
2022-12-08T22:32:24.586Z,23.3
2022-12-08T22:37:24.419Z,24.9
2022-12-08T22:42:24.419Z,26.4
2022-12-08T22:47:24.591Z,27.6
2022-12-08T22:52:24.423Z,26.3
2022-12-08T22:57:24.458Z,26.0
2022-12-08T23:02:24.511Z,25.9
2022-12-08T23:07:24.438Z,25.2
2022-12-08T23:12:24.528Z,26.8
2022-12-08T23:17:24.668Z,26.2
2022-12-08T23:22:24.445Z,25.3
2022-12-08T23:27:24.445Z,24.4
2022-12-08T23:32:24.419Z,25.5
2022-12-08T23:37:24.533Z,23.2
2022-12-08T23:42:24.689Z,26.9
2022-12-08T23:47:24.441Z,26.5
2022-12-08T23:52:24.407Z,25.5
2022-12-08T23:57:24.469Z,24.1
